Time;durP1;ratioP1;P1;durP2;ratioP2;P2;SDS_P1;SDS_P2;PMS_P1;PMS_P2;Temp;Humidity;BMP_temperature;BMP_pressure;BME280_temperature;BME280_humidity;BME280_pressure;Samples;Min_cycle;Max_cycle;Signal;HPM_P1;HPM_P2
2022/08/18 00:01:05;;;;;;;24.70;10.47;;;23.50;99.90;;;;;;4953146;29;20530;-81
2022/08/18 00:03:33;;;;;;;11.93;10.83;;;23.60;99.90;;;;;;4947413;28;20498;-81
2022/08/18 00:06:19;;;;;;;13.63;12.23;;;23.40;99.90;;;;;;4954616;29;20411;-82
2022/08/18 00:08:46;;;;;;;12.27;11.20;;;23.50;99.90;;;;;;4946407;28;20445;-81
2022/08/18 00:11:14;;;;;;;12.93;11.83;;;23.50;99.90;;;;;;4951922;28;20424;-81
2022/08/18 00:13:41;;;;;;;14.43;13.17;;;23.50;99.90;;;;;;4951114;29;20452;-82
2022/08/18 00:16:08;;;;;;;13.90;11.63;;;23.60;99.90;;;;;;4954122;29;20508;-80
2022/08/18 00:18:35;;;;;;;12.40;11.20;;;23.60;99.90;;;;;;4952757;28;20419;-80
2022/08/18 00:21:02;;;;;;;13.20;11.47;;;23.50;99.90;;;;;;4956323;28;20520;-81
2022/08/18 00:23:30;;;;;;;12.43;11.13;;;23.50;99.90;;;;;;4957353;28;20584;-80
2022/08/18 00:25:59;;;;;;;13.30;11.87;;;23.50;99.90;;;;;;4953398;28;20794;-80
2022/08/18 00:28:25;;;;;;;13.17;11.53;;;23.40;99.90;;;;;;4955455;29;20449;-82
2022/08/18 00:30:53;;;;;;;12.33;10.73;;;23.40;99.90;;;;;;4953401;28;20570;-80
2022/08/18 00:33:20;;;;;;;12.27;10.80;;;23.30;99.90;;;;;;4946857;29;20468;-82
2022/08/18 00:35:48;;;;;;;12.60;11.50;;;23.10;99.90;;;;;;4952191;28;20793;-82
2022/08/18 00:38:16;;;;;;;13.60;11.63;;;23.10;99.90;;;;;;4955222;28;20445;-81
2022/08/18 00:40:53;;;;;;;12.80;11.70;;;23.10;99.90;;;;;;4953777;28;20522;-80
2022/08/18 00:43:43;;;;;;;13.07;11.77;;;23.10;99.90;;;;;;4954765;29;20426;-82
2022/08/18 00:46:19;;;;;;;12.67;11.33;;;23.10;99.90;;;;;;4949836;28;20413;-81
2022/08/18 00:48:47;;;;;;;12.40;11.10;;;23.00;99.90;;;;;;4950196;28;20416;-80
2022/08/18 00:51:36;;;;;;;13.80;12.50;;;22.60;99.90;;;;;;4950752;29;20504;-83
2022/08/18 00:54:14;;;;;;;13.60;11.70;;;22.40;99.90;;;;;;4949957;28;20473;-81
2022/08/18 00:56:47;;;;;;;14.30;12.80;;;22.20;99.90;;;;;;4953238;29;20449;-83
2022/08/18 00:59:30;;;;;;;13.30;12.00;;;22.10;99.90;;;;;;4957438;28;20455;-82
2022/08/18 01:02:01;;;;;;;14.43;13.03;;;22.00;99.90;;;;;;4962194;28;20519;-82
2022/08/18 01:04:34;;;;;;;13.10;11.80;;;22.10;99.90;;;;;;4955627;28;20770;-81
2022/08/18 01:07:34;;;;;;;12.17;10.97;;;21.90;99.90;;;;;;4948622;29;20445;-81
2022/08/18 01:10:04;;;;;;;13.07;11.87;;;22.00;99.90;;;;;;4950791;29;20416;-82
2022/08/18 01:12:32;;;;;;;13.67;12.17;;;22.30;99.90;;;;;;4954071;28;20430;-82
2022/08/18 01:15:13;;;;;;;13.00;10.77;;;22.50;99.90;;;;;;4959450;28;20489;-81
2022/08/18 01:23:46;;;;;;;13.40;11.73;;;22.90;99.90;;;;;;4967630;28;20539;-81
2022/08/18 01:26:16;;;;;;;13.27;11.57;;;22.50;99.90;;;;;;4961565;28;20453;-82
2022/08/18 01:28:45;;;;;;;13.93;12.20;;;22.40;99.90;;;;;;4958965;29;20424;-82
2022/08/18 01:31:31;;;;;;;15.30;11.93;;;22.60;99.90;;;;;;4960299;28;20835;-82
2022/08/18 01:33:59;;;;;;;13.43;12.00;;;22.50;99.90;;;;;;4957175;28;20453;-82
2022/08/18 01:36:28;;;;;;;14.93;13.30;;;22.50;99.90;;;;;;4963495;28;20453;-80
2022/08/18 01:38:56;;;;;;;12.63;11.33;;;22.50;99.90;;;;;;4959789;28;20414;-84
2022/08/18 01:41:24;;;;;;;13.17;11.67;;;22.50;99.90;;;;;;4959932;28;20669;-81
2022/08/18 01:43:58;;;;;;;12.60;11.40;;;22.30;99.90;;;;;;4955276;29;20461;-82
2022/08/18 01:46:28;;;;;;;21.90;12.17;;;22.30;99.90;;;;;;4951981;28;20422;-82
2022/08/18 01:48:57;;;;;;;11.93;10.83;;;22.20;99.90;;;;;;4953472;29;20454;-81
2022/08/18 01:51:24;;;;;;;13.73;12.43;;;22.20;99.90;;;;;;4957227;28;20463;-81
2022/08/18 01:54:12;;;;;;;12.77;11.47;;;22.50;99.90;;;;;;4959743;28;20523;-82
2022/08/18 01:56:41;;;;;;;13.83;12.27;;;22.40;99.90;;;;;;4954319;28;20482;-81
2022/08/18 01:59:12;;;;;;;14.20;12.77;;;22.10;99.90;;;;;;4957915;29;20747;-82
2022/08/18 02:01:42;;;;;;;12.30;11.20;;;22.10;99.90;;;;;;4952963;28;20652;-81
2022/08/18 02:04:23;;;;;;;14.43;13.17;;;22.10;99.90;;;;;;4962856;28;20497;-82
2022/08/18 02:07:06;;;;;;;19.13;15.00;;;22.00;99.90;;;;;;4963219;28;20472;-83
2022/08/18 02:09:35;;;;;;;12.50;11.40;;;21.90;99.90;;;;;;4962630;28;20456;-78
2022/08/18 02:12:04;;;;;;;14.20;11.57;;;21.80;99.90;;;;;;4955738;28;20461;-82
2022/08/18 02:14:32;;;;;;;13.87;12.53;;;21.80;99.90;;;;;;4965035;28;20434;-83
2022/08/18 02:17:01;;;;;;;13.40;12.17;;;21.70;99.90;;;;;;4957137;28;20483;-78
2022/08/18 02:19:40;;;;;;;13.50;12.20;;;21.60;99.90;;;;;;4966543;28;20482;-81
2022/08/18 02:22:10;;;;;;;14.17;12.67;;;21.60;99.90;;;;;;4954621;28;20454;-81
2022/08/18 02:24:37;;;;;;;13.63;12.43;;;21.60;99.90;;;;;;4951879;28;20471;-82
2022/08/18 02:27:06;;;;;;;12.90;11.80;;;21.70;99.90;;;;;;4964696;28;20762;-81
2022/08/18 02:29:33;;;;;;;14.67;13.20;;;21.80;99.90;;;;;;4959949;28;20430;-81
2022/08/18 02:32:00;;;;;;;20.03;14.13;;;21.90;99.90;;;;;;4970356;28;20612;-82
2022/08/18 02:34:27;;;;;;;16.90;13.90;;;21.80;99.90;;;;;;4957747;28;20857;-81
2022/08/18 02:36:55;;;;;;;15.87;13.57;;;21.70;99.90;;;;;;4957473;28;20579;-81
2022/08/18 02:39:22;;;;;;;14.60;13.10;;;21.60;99.90;;;;;;4968390;28;20434;-80
2022/08/18 02:41:49;;;;;;;13.60;12.23;;;21.60;99.90;;;;;;4956353;28;20416;-84
2022/08/18 02:44:16;;;;;;;14.60;13.20;;;21.70;99.90;;;;;;4958409;28;20988;-80
2022/08/18 02:46:43;;;;;;;15.50;13.00;;;21.60;99.90;;;;;;4963101;28;20502;-82
2022/08/18 02:49:11;;;;;;;17.40;11.83;;;21.50;99.90;;;;;;4971942;28;20530;-81
2022/08/18 02:51:38;;;;;;;14.20;12.70;;;21.60;99.90;;;;;;4956591;28;20454;-81
2022/08/18 02:54:08;;;;;;;12.93;11.63;;;21.60;99.90;;;;;;4966258;28;20458;-81
2022/08/18 02:56:36;;;;;;;14.90;13.50;;;21.70;99.90;;;;;;4963122;28;20446;-81
2022/08/18 02:59:12;;;;;;;15.40;12.03;;;21.80;99.90;;;;;;4952777;28;20448;-80
2022/08/18 03:01:43;;;;;;;20.17;13.43;;;21.90;99.90;;;;;;4958462;28;20433;-81
2022/08/18 03:04:18;;;;;;;13.10;11.70;;;21.80;99.90;;;;;;4951229;29;20478;-81
2022/08/18 03:06:48;;;;;;;14.93;13.53;;;21.90;99.90;;;;;;4969120;28;20422;-82
2022/08/18 03:09:17;;;;;;;20.53;16.10;;;21.90;99.90;;;;;;4953568;28;20419;-81
2022/08/18 03:11:45;;;;;;;15.37;13.80;;;21.90;99.90;;;;;;4972916;28;20487;-81
2022/08/18 03:14:13;;;;;;;17.47;14.00;;;22.00;99.90;;;;;;4985070;28;20437;-81
2022/08/18 03:16:43;;;;;;;14.17;12.73;;;21.90;99.90;;;;;;4996352;28;20437;-81
2022/08/18 03:19:21;;;;;;;15.80;14.20;;;21.80;99.90;;;;;;4987099;28;20407;-81
2022/08/18 03:21:49;;;;;;;14.77;13.20;;;21.70;99.90;;;;;;4960753;28;20705;-81
2022/08/18 03:24:17;;;;;;;15.50;13.93;;;21.30;99.90;;;;;;4977971;28;20540;-80
2022/08/18 03:26:50;;;;;;;16.03;14.33;;;21.20;99.90;;;;;;4959955;28;20464;-81
2022/08/18 03:29:17;;;;;;;17.13;14.50;;;21.10;99.90;;;;;;4960758;28;20454;-81
2022/08/18 03:31:44;;;;;;;16.87;15.10;;;21.10;99.90;;;;;;4974032;28;20413;-80
2022/08/18 03:34:11;;;;;;;15.87;14.30;;;21.10;99.90;;;;;;4952164;29;20595;-79
2022/08/18 03:36:38;;;;;;;17.23;15.50;;;21.20;99.90;;;;;;4956835;28;20451;-80
2022/08/18 03:39:08;;;;;;;24.20;13.63;;;21.30;99.90;;;;;;4956210;28;20453;-81
2022/08/18 03:41:38;;;;;;;20.27;16.23;;;21.20;99.90;;;;;;4949641;28;20413;-83
2022/08/18 03:44:26;;;;;;;15.73;14.20;;;21.10;99.90;;;;;;4951617;28;21099;-81
2022/08/18 03:46:53;;;;;;;18.77;15.60;;;21.00;99.90;;;;;;4960942;29;20439;-81
2022/08/18 03:49:21;;;;;;;15.30;13.77;;;20.70;99.90;;;;;;4962559;28;20421;-81
2022/08/18 03:51:50;;;;;;;16.40;14.57;;;20.80;99.90;;;;;;4954822;28;20490;-81
2022/08/18 03:54:18;;;;;;;18.20;14.40;;;21.10;99.90;;;;;;4950238;29;20799;-81
2022/08/18 03:56:46;;;;;;;17.43;15.67;;;21.00;99.90;;;;;;4949484;28;20433;-80
2022/08/18 03:59:17;;;;;;;16.80;15.10;;;20.90;99.90;;;;;;4943942;29;20486;-81
2022/08/18 04:01:47;;;;;;;17.60;14.60;;;21.00;99.90;;;;;;4950413;28;20485;-80
2022/08/18 04:04:18;;;;;;;18.53;14.00;;;21.10;99.90;;;;;;4960812;28;20574;-81
2022/08/18 04:06:52;;;;;;;16.10;14.50;;;21.20;99.90;;;;;;4963438;28;20431;-81
2022/08/18 04:09:23;;;;;;;16.00;14.40;;;21.10;99.90;;;;;;4960018;29;20493;-80
2022/08/18 04:11:54;;;;;;;17.43;14.07;;;21.10;99.90;;;;;;4972533;28;20485;-80
2022/08/18 04:14:29;;;;;;;17.07;15.20;;;21.10;99.90;;;;;;4960955;28;20487;-81
2022/08/18 04:16:57;;;;;;;15.60;13.93;;;21.00;99.90;;;;;;4959485;28;20466;-83
2022/08/18 04:19:25;;;;;;;17.53;13.80;;;21.10;99.90;;;;;;4967859;28;20640;-82
2022/08/18 04:21:56;;;;;;;19.37;15.10;;;21.30;99.90;;;;;;4957472;28;20434;-81
2022/08/18 04:24:24;;;;;;;17.70;15.90;;;21.40;99.90;;;;;;4951022;29;20494;-81
2022/08/18 04:26:52;;;;;;;19.93;15.60;;;21.30;99.90;;;;;;4960107;28;20757;-81
2022/08/18 04:29:20;;;;;;;16.93;15.17;;;21.20;99.90;;;;;;4961073;28;20419;-80
2022/08/18 04:31:50;;;;;;;16.80;15.17;;;21.30;99.90;;;;;;4961682;29;20485;-82
2022/08/18 04:34:19;;;;;;;17.40;15.53;;;21.00;99.90;;;;;;4963867;28;20443;-81
2022/08/18 04:36:47;;;;;;;17.13;15.47;;;21.20;99.90;;;;;;4958308;28;20446;-82
2022/08/18 04:39:14;;;;;;;16.80;15.17;;;21.30;99.90;;;;;;4956250;28;20602;-80
2022/08/18 04:41:42;;;;;;;19.03;15.87;;;21.40;99.90;;;;;;4954810;28;20427;-80
2022/08/18 04:44:11;;;;;;;18.97;17.07;;;21.30;99.90;;;;;;4961936;28;20452;-83
2022/08/18 04:46:42;;;;;;;20.33;18.00;;;21.40;99.90;;;;;;4956247;28;20961;-82
2022/08/18 04:49:10;;;;;;;18.63;16.83;;;21.50;99.90;;;;;;4955418;28;20515;-81
2022/08/18 04:51:41;;;;;;;19.20;17.17;;;21.60;99.90;;;;;;4954403;28;20441;-82
2022/08/18 04:54:28;;;;;;;20.30;16.97;;;21.80;99.90;;;;;;4948113;29;20480;-83
2022/08/18 04:56:55;;;;;;;16.73;15.10;;;21.90;99.90;;;;;;4957458;28;20791;-82
2022/08/18 04:59:23;;;;;;;17.23;15.20;;;22.00;99.90;;;;;;4955886;29;20773;-83
2022/08/18 05:01:50;;;;;;;17.50;15.80;;;22.10;99.90;;;;;;4948695;29;20502;-80
2022/08/18 05:04:17;;;;;;;18.57;16.70;;;22.20;99.90;;;;;;4958262;28;20454;-83
2022/08/18 05:06:44;;;;;;;17.60;15.80;;;22.40;99.90;;;;;;4960546;29;20600;-83
2022/08/18 05:09:14;;;;;;;17.80;16.00;;;22.60;99.90;;;;;;4960666;28;20459;-80
2022/08/18 05:11:43;;;;;;;25.57;17.13;;;22.70;99.90;;;;;;4958451;28;20452;-83
2022/08/18 05:14:10;;;;;;;34.33;16.97;;;22.60;99.90;;;;;;4968548;28;20544;-81
2022/08/18 05:16:38;;;;;;;19.10;17.17;;;22.60;99.90;;;;;;4957075;28;20429;-85
2022/08/18 05:19:20;;;;;;;20.60;18.33;;;22.80;99.90;;;;;;4966286;28;20418;-81
2022/08/18 05:21:54;;;;;;;19.67;17.70;;;22.90;99.90;;;;;;4956912;29;20498;-85
2022/08/18 05:24:27;;;;;;;17.93;16.27;;;23.00;99.90;;;;;;4957754;28;20415;-81
2022/08/18 05:27:04;;;;;;;21.73;16.10;;;23.20;99.90;;;;;;4970192;28;20458;-81
2022/08/18 05:29:37;;;;;;;21.13;17.33;;;23.40;99.90;;;;;;4962479;28;20434;-81
2022/08/18 05:32:12;;;;;;;18.93;16.93;;;23.50;99.90;;;;;;4973295;28;20408;-83
2022/08/18 05:35:27;;;;;;;17.17;15.47;;;23.60;99.90;;;;;;4962903;28;20448;-83
2022/08/18 05:38:32;;;;;;;17.77;15.00;;;23.90;99.90;;;;;;4965398;28;20485;-81
2022/08/18 05:41:13;;;;;;;18.77;16.83;;;24.10;99.90;;;;;;4968833;28;20488;-84
2022/08/18 05:43:44;;;;;;;22.60;17.00;;;24.40;99.90;;;;;;4964109;28;20758;-82
2022/08/18 05:46:23;;;;;;;18.43;15.60;;;24.40;99.90;;;;;;4960194;28;20479;-85
2022/08/18 05:48:50;;;;;;;16.63;15.13;;;24.80;99.90;;;;;;4958976;28;20440;-83
2022/08/18 05:51:27;;;;;;;18.50;16.73;;;24.80;99.90;;;;;;4969154;28;20551;-84
2022/08/18 05:56:47;;;;;;;17.57;15.57;;;24.90;99.90;;;;;;4966912;28;20481;-81
2022/08/18 05:59:19;;;;;;;17.17;15.43;;;24.90;99.90;;;;;;4965209;28;20772;-82
2022/08/18 06:01:53;;;;;;;17.73;15.87;;;25.10;99.90;;;;;;4968974;28;20548;-83
2022/08/18 06:04:54;;;;;;;16.83;15.23;;;25.40;99.90;;;;;;4966715;28;20497;-79
2022/08/18 06:07:30;;;;;;;20.43;16.03;;;25.70;99.90;;;;;;4967185;28;20495;-82
2022/08/18 06:09:59;;;;;;;19.93;17.60;;;25.90;99.90;;;;;;4960817;28;20436;-79
2022/08/18 06:12:34;;;;;;;17.40;15.60;;;26.10;99.90;;;;;;4971829;28;20514;-82
2022/08/18 06:15:13;;;;;;;20.70;16.17;;;26.00;99.90;;;;;;4969419;28;20415;-84
2022/08/18 06:18:06;;;;;;;19.00;17.03;;;26.00;99.90;;;;;;4964824;28;20530;-82
2022/08/18 06:21:15;;;;;;;17.77;15.87;;;26.00;99.90;;;;;;4969864;28;20455;-82
2022/08/18 06:24:05;;;;;;;16.47;14.87;;;26.00;99.90;;;;;;4959723;28;20422;-83
2022/08/18 06:26:55;;;;;;;19.30;17.27;;;26.20;99.90;;;;;;4957167;28;20502;-83
2022/08/18 06:29:41;;;;;;;19.23;16.67;;;26.30;99.90;;;;;;4957233;29;20548;-81
2022/08/18 06:32:27;;;;;;;18.60;16.67;;;26.60;99.90;;;;;;4953253;29;20425;-81
2022/08/18 06:35:20;;;;;;;19.33;17.30;;;27.10;99.90;;;;;;4957981;28;21050;-81
2022/08/18 06:41:10;;;;;;;18.77;16.73;;;28.00;99.90;;;;;;4958358;29;20528;-83
2022/08/18 06:44:02;;;;;;;18.70;17.00;;;28.30;99.90;;;;;;4955786;28;20437;-83
2022/08/18 06:46:54;;;;;;;18.77;17.00;;;28.70;99.90;;;;;;4960871;28;20475;-82
2022/08/18 06:49:40;;;;;;;19.73;17.13;;;29.20;99.90;;;;;;4959514;28;20445;-84
2022/08/18 06:52:33;;;;;;;20.40;18.40;;;29.40;99.90;;;;;;4956901;29;20441;-83
2022/08/18 06:55:10;;;;;;;19.20;17.40;;;29.70;99.90;;;;;;4984230;28;20446;-82
2022/08/18 06:57:51;;;;;;;18.57;16.90;;;30.80;99.90;;;;;;4968153;28;20417;-82
2022/08/18 07:00:29;;;;;;;19.90;17.80;;;31.30;99.90;;;;;;4959537;28;20532;-82
2022/08/18 07:03:13;;;;;;;18.73;16.83;;;32.10;99.90;;;;;;4962180;28;20468;-81
2022/08/18 07:06:03;;;;;;;19.27;17.27;;;33.10;99.90;;;;;;4968816;28;20516;-85
2022/08/18 07:08:29;;;;;;;15.83;14.43;;;33.10;99.90;;;;;;4974624;28;20418;-81
2022/08/18 07:11:20;;;;;;;20.70;15.23;;;33.90;99.90;;;;;;4972032;28;20504;-83
2022/08/18 07:13:49;;;;;;;16.70;15.20;;;35.50;99.90;;;;;;4970786;28;20449;-83
2022/08/18 07:16:39;;;;;;;19.47;15.30;;;36.50;99.90;;;;;;4969135;28;20432;-84
2022/08/18 07:19:29;;;;;;;15.10;13.47;;;36.80;99.90;;;;;;4967242;28;20865;-81
2022/08/18 07:22:16;;;;;;;15.30;14.00;;;37.00;99.90;;;;;;4967495;28;20603;-83
2022/08/18 07:24:58;;;;;;;13.77;12.60;;;37.00;99.90;;;;;;4970748;28;20468;-83
2022/08/18 07:27:48;;;;;;;14.87;13.47;;;38.40;99.90;;;;;;4963521;28;20520;-80
2022/08/18 07:30:21;;;;;;;16.57;14.20;;;38.60;97.70;;;;;;4978528;28;20452;-82
2022/08/18 07:33:03;;;;;;;13.40;12.20;;;37.80;99.20;;;;;;4975978;28;20442;-82
2022/08/18 07:35:57;;;;;;;14.60;13.33;;;37.80;98.90;;;;;;4957344;28;20566;-82
2022/08/18 07:38:52;;;;;;;15.27;13.77;;;38.50;98.20;;;;;;4970122;28;21571;-81
2022/08/18 07:41:25;;;;;;;14.77;13.47;;;39.70;95.50;;;;;;4967433;28;20445;-82
2022/08/18 07:44:04;;;;;;;12.60;11.30;;;39.80;94.40;;;;;;4976402;28;20437;-81
2022/08/18 07:46:52;;;;;;;12.90;11.70;;;39.00;94.70;;;;;;4977316;28;20465;-83
2022/08/18 07:49:23;;;;;;;13.47;11.97;;;38.70;95.60;;;;;;4964424;28;20459;-82
2022/08/18 07:52:24;;;;;;;14.77;13.27;;;40.00;94.20;;;;;;4966516;28;20514;-81
2022/08/18 07:55:30;;;;;;;13.70;12.37;;;40.50;92.40;;;;;;4948590;29;20500;-83
2022/08/18 07:58:14;;;;;;;14.20;13.00;;;40.60;91.10;;;;;;4962703;28;20647;-83
2022/08/18 08:01:05;;;;;;;12.00;10.90;;;39.60;92.40;;;;;;4968622;28;20457;-82
2022/08/18 08:03:47;;;;;;;13.33;12.03;;;40.80;90.50;;;;;;4960438;28;20452;-81
2022/08/18 08:06:34;;;;;;;13.77;12.47;;;41.50;88.50;;;;;;4983375;28;20635;-80
2022/08/18 08:09:38;;;;;;;15.47;12.57;;;38.10;92.80;;;;;;4955735;28;20457;-81
2022/08/18 08:12:34;;;;;;;13.30;12.20;;;36.60;95.30;;;;;;4961549;28;20429;-80
2022/08/18 08:15:16;;;;;;;15.03;11.87;;;37.30;94.60;;;;;;4967301;28;20600;-79
2022/08/18 08:18:03;;;;;;;14.33;12.73;;;37.10;95.10;;;;;;4961915;28;20666;-79
2022/08/18 08:20:39;;;;;;;13.73;11.20;;;38.40;93.30;;;;;;4963255;28;20448;-81
2022/08/18 08:23:33;;;;;;;15.10;13.40;;;38.60;92.70;;;;;;4976383;28;20431;-81
2022/08/18 08:26:03;;;;;;;12.80;11.67;;;38.70;93.00;;;;;;4971888;28;20597;-81
2022/08/18 08:28:46;;;;;;;14.20;12.37;;;39.50;92.50;;;;;;4967477;28;20543;-82
2022/08/18 08:31:59;;;;;;;13.57;12.40;;;40.30;90.60;;;;;;4970951;28;20429;-81
2022/08/18 08:34:54;;;;;;;16.70;13.30;;;41.20;88.10;;;;;;4948305;28;20437;-80
2022/08/18 08:37:32;;;;;;;13.00;12.00;;;41.20;87.20;;;;;;4960411;28;20625;-82
2022/08/18 08:40:20;;;;;;;17.30;12.40;;;41.10;88.30;;;;;;4956646;28;20479;-83
2022/08/18 08:43:14;;;;;;;14.10;12.80;;;41.20;87.50;;;;;;4964502;28;20457;-81
2022/08/18 08:45:51;;;;;;;13.30;12.13;;;40.60;85.00;;;;;;4959613;28;20495;-78
2022/08/18 08:48:26;;;;;;;15.40;10.97;;;39.80;87.40;;;;;;4964867;28;20508;-84
2022/08/18 08:50:56;;;;;;;13.13;12.03;;;40.10;86.70;;;;;;4960748;28;20682;-82
2022/08/18 08:53:28;;;;;;;13.00;11.80;;;40.00;86.60;;;;;;4962717;28;20766;-80
2022/08/18 08:56:08;;;;;;;12.60;11.47;;;40.40;84.40;;;;;;4966044;28;20455;-82
2022/08/18 08:58:41;;;;;;;12.93;11.67;;;39.10;87.60;;;;;;4969705;28;20441;-82
2022/08/18 09:01:20;;;;;;;15.80;12.37;;;39.30;86.70;;;;;;4970831;28;20474;-83
2022/08/18 09:03:57;;;;;;;23.23;12.47;;;39.40;86.90;;;;;;4962114;28;20452;-83
2022/08/18 09:06:56;;;;;;;11.90;10.80;;;38.90;87.40;;;;;;4966234;28;20484;-82
2022/08/18 09:09:48;;;;;;;25.00;10.90;;;37.50;90.20;;;;;;4961712;28;20526;-78
2022/08/18 09:12:24;;;;;;;13.10;11.70;;;37.20;91.20;;;;;;4967780;28;20691;-81
2022/08/18 09:15:19;;;;;;;13.13;11.80;;;36.80;91.30;;;;;;4966238;28;20496;-83
2022/08/18 09:17:54;;;;;;;13.30;11.97;;;37.30;91.10;;;;;;4967718;28;20441;-83
2022/08/18 09:20:53;;;;;;;11.40;10.30;;;36.80;92.30;;;;;;4968094;28;20519;-82
2022/08/18 09:23:23;;;;;;;11.10;10.20;;;37.40;91.30;;;;;;4966780;28;20429;-84
2022/08/18 09:25:59;;;;;;;12.90;11.70;;;37.30;90.80;;;;;;4965672;28;20827;-82
2022/08/18 09:28:29;;;;;;;16.40;11.20;;;38.30;89.60;;;;;;4971033;28;20786;-80
2022/08/18 09:31:05;;;;;;;11.60;10.63;;;39.00;88.20;;;;;;4962823;28;20440;-79
2022/08/18 09:33:39;;;;;;;12.30;11.40;;;37.10;90.40;;;;;;4971277;28;20966;-80
2022/08/18 09:36:31;;;;;;;11.60;10.67;;;35.80;91.90;;;;;;4972769;28;20643;-79
2022/08/18 09:42:39;;;;;;;9.90;9.00;;;33.90;95.00;;;;;;4961524;28;20449;-82
2022/08/18 09:45:51;;;;;;;12.20;11.10;;;33.80;96.20;;;;;;4970117;28;20536;-81
2022/08/18 09:48:26;;;;;;;10.83;9.83;;;33.80;94.20;;;;;;4945403;28;20432;-81
2022/08/18 09:51:15;;;;;;;23.40;10.83;;;33.70;94.70;;;;;;4961221;28;20453;-81
2022/08/18 09:53:51;;;;;;;14.70;10.23;;;33.50;95.80;;;;;;4966115;28;20504;-80
2022/08/18 09:56:50;;;;;;;10.90;9.90;;;33.50;95.80;;;;;;4956590;28;20527;-83
2022/08/18 09:59:32;;;;;;;11.07;9.97;;;32.80;96.50;;;;;;4948780;28;20813;-80
2022/08/18 10:02:02;;;;;;;12.17;10.97;;;32.70;96.20;;;;;;4964748;28;20456;-80
2022/08/18 10:04:47;;;;;;;11.47;10.40;;;32.20;96.50;;;;;;4966354;28;20436;-80
2022/08/18 10:07:32;;;;;;;11.37;10.37;;;32.00;98.20;;;;;;4971061;28;20480;-82
2022/08/18 10:10:31;;;;;;;11.90;10.70;;;32.20;98.30;;;;;;4953744;28;20472;-81
2022/08/18 10:13:35;;;;;;;12.40;10.23;;;32.30;97.40;;;;;;4982801;28;20512;-78
2022/08/18 10:16:07;;;;;;;10.93;9.80;;;32.30;97.90;;;;;;4967271;28;20616;-83
2022/08/18 10:18:52;;;;;;;11.43;10.33;;;32.10;98.60;;;;;;4975584;28;20503;-82
2022/08/18 10:21:29;;;;;;;10.63;9.83;;;32.20;98.20;;;;;;4978296;28;20425;-81
2022/08/18 10:24:18;;;;;;;10.93;9.30;;;32.20;98.10;;;;;;4967027;28;20441;-83
2022/08/18 10:27:29;;;;;;;11.10;10.00;;;32.20;97.50;;;;;;4969228;28;20660;-86
2022/08/18 10:29:59;;;;;;;13.00;11.23;;;32.00;97.90;;;;;;4968746;28;20448;-82
2022/08/18 10:32:52;;;;;;;10.40;9.50;;;31.90;98.30;;;;;;4964003;28;20441;-81
2022/08/18 10:35:35;;;;;;;11.67;10.47;;;32.00;98.80;;;;;;4958184;29;20517;-84
2022/08/18 10:38:20;;;;;;;10.30;9.40;;;32.00;97.90;;;;;;4959189;28;20504;-80
2022/08/18 10:41:03;;;;;;;9.80;8.90;;;32.00;98.20;;;;;;4958102;28;20440;-79
2022/08/18 10:43:45;;;;;;;9.70;8.67;;;31.50;98.40;;;;;;4966634;28;20439;-81
2022/08/18 10:46:30;;;;;;;8.40;7.60;;;31.30;98.80;;;;;;4949987;29;20483;-82
2022/08/18 10:49:11;;;;;;;10.87;9.77;;;31.30;99.00;;;;;;4956721;28;20772;-85
2022/08/18 10:51:51;;;;;;;9.60;8.80;;;31.50;98.00;;;;;;4958371;28;20484;-83
2022/08/18 10:54:59;;;;;;;9.33;8.47;;;31.50;98.40;;;;;;4957374;28;20444;-82
2022/08/18 10:57:53;;;;;;;8.63;7.83;;;31.50;97.30;;;;;;4955959;28;20464;-79
2022/08/18 11:00:21;;;;;;;8.87;8.00;;;31.30;96.30;;;;;;4953921;28;20464;-81
2022/08/18 11:02:51;;;;;;;8.10;7.40;;;31.20;96.10;;;;;;4950623;28;20479;-80
2022/08/18 11:05:40;;;;;;;7.43;6.80;;;31.50;95.50;;;;;;4950128;28;20435;-83
2022/08/18 11:08:16;;;;;;;7.17;6.57;;;31.30;95.30;;;;;;4963505;28;20456;-80
2022/08/18 11:10:50;;;;;;;8.57;7.77;;;31.30;96.00;;;;;;4952986;28;20566;-80
2022/08/18 11:13:55;;;;;;;9.30;8.37;;;31.30;96.30;;;;;;4971897;28;20410;-83
2022/08/18 11:16:43;;;;;;;9.17;8.47;;;31.50;95.00;;;;;;4963005;28;20526;-80
2022/08/18 11:19:15;;;;;;;10.73;9.90;;;31.80;95.30;;;;;;4971334;28;20532;-82
2022/08/18 11:21:46;;;;;;;10.27;9.00;;;32.00;97.00;;;;;;4958625;29;20445;-85
2022/08/18 11:24:23;;;;;;;8.67;7.97;;;31.80;97.20;;;;;;4962785;28;20441;-82
2022/08/18 11:27:22;;;;;;;9.27;8.20;;;32.00;95.70;;;;;;4975349;28;20489;-82
2022/08/18 11:29:51;;;;;;;10.23;9.20;;;32.10;96.50;;;;;;4958731;28;20449;-81
2022/08/18 11:32:31;;;;;;;9.00;8.30;;;31.90;96.60;;;;;;4960234;28;20447;-80
2022/08/18 11:35:12;;;;;;;8.50;7.10;;;31.90;96.40;;;;;;4969206;28;20440;-82
2022/08/18 11:38:00;;;;;;;8.67;7.97;;;32.00;92.80;;;;;;4964666;28;20444;-79
2022/08/18 11:40:36;;;;;;;14.70;8.77;;;32.30;94.40;;;;;;4967228;28;20442;-82
2022/08/18 11:43:31;;;;;;;8.40;7.70;;;32.50;94.00;;;;;;4959524;28;20445;-80
2022/08/18 11:46:22;;;;;;;10.77;9.93;;;32.40;93.60;;;;;;4964264;28;20519;-80
2022/08/18 11:48:58;;;;;;;17.43;10.60;;;32.40;97.40;;;;;;4965147;28;20450;-80
2022/08/18 11:51:31;;;;;;;11.00;10.10;;;32.20;98.70;;;;;;4959257;28;20759;-84
2022/08/18 11:54:12;;;;;;;13.73;10.03;;;32.10;98.90;;;;;;4959929;28;20518;-81
2022/08/18 11:56:39;;;;;;;11.87;10.90;;;32.20;98.90;;;;;;4965014;28;20471;-80
2022/08/18 11:59:31;;;;;;;13.47;10.40;;;32.20;98.70;;;;;;4969886;28;20445;-82
2022/08/18 12:02:19;;;;;;;11.90;10.90;;;32.00;98.80;;;;;;4959865;28;20437;-81
2022/08/18 12:04:59;;;;;;;12.17;11.10;;;31.80;99.60;;;;;;4955201;28;20966;-79
2022/08/18 12:07:40;;;;;;;12.77;10.50;;;31.70;99.30;;;;;;4955019;29;20556;-81
2022/08/18 12:10:27;;;;;;;11.93;10.93;;;31.70;99.10;;;;;;4955208;28;20420;-78
2022/08/18 12:12:58;;;;;;;10.63;9.83;;;31.80;99.40;;;;;;4958891;28;20500;-81
2022/08/18 12:15:30;;;;;;;11.27;9.60;;;31.70;99.80;;;;;;4950715;29;20621;-83
2022/08/18 12:18:16;;;;;;;10.90;9.90;;;31.70;99.60;;;;;;4963210;28;20535;-80
2022/08/18 12:20:56;;;;;;;12.73;11.70;;;31.90;99.40;;;;;;4964538;28;20453;-80
2022/08/18 12:23:24;;;;;;;12.33;11.13;;;31.60;99.90;;;;;;4967458;28;20447;-82
2022/08/18 12:25:52;;;;;;;12.73;11.53;;;31.50;99.90;;;;;;4963281;28;20508;-79
2022/08/18 12:28:20;;;;;;;11.90;10.70;;;31.60;99.90;;;;;;4972647;28;20543;-85
2022/08/18 12:30:48;;;;;;;13.23;11.90;;;31.80;99.90;;;;;;4968490;28;20481;-82
2022/08/18 12:33:25;;;;;;;11.67;10.73;;;32.00;99.80;;;;;;4972433;28;20444;-81
2022/08/18 12:36:12;;;;;;;12.37;11.23;;;31.90;99.90;;;;;;4963588;28;20476;-83
2022/08/18 12:38:44;;;;;;;12.10;11.07;;;32.00;99.90;;;;;;4971693;28;20829;-80
2022/08/18 12:41:22;;;;;;;14.50;12.07;;;32.10;99.50;;;;;;4976056;28;20448;-81
2022/08/18 12:43:49;;;;;;;12.80;11.47;;;32.40;99.20;;;;;;4972878;28;20449;-80
2022/08/18 12:46:36;;;;;;;15.77;14.33;;;32.60;99.20;;;;;;4974015;28;20465;-82
2022/08/18 12:49:17;;;;;;;13.57;12.47;;;32.60;98.70;;;;;;4980077;28;20512;-83
2022/08/18 12:51:45;;;;;;;13.47;12.30;;;32.40;99.70;;;;;;4978785;28;20796;-80
2022/08/18 12:54:17;;;;;;;12.80;11.60;;;32.30;99.40;;;;;;4973387;28;20496;-83
2022/08/18 12:56:53;;;;;;;12.40;11.40;;;32.10;99.20;;;;;;4966108;28;20480;-81
2022/08/18 12:59:22;;;;;;;14.80;13.43;;;31.80;98.50;;;;;;4970142;28;20917;-79
2022/08/18 13:01:50;;;;;;;13.27;12.00;;;31.90;99.00;;;;;;4964772;28;20513;-80
2022/08/18 13:04:24;;;;;;;14.40;13.10;;;32.10;98.30;;;;;;4967249;28;20422;-82
2022/08/18 13:07:12;;;;;;;15.50;13.33;;;32.10;98.70;;;;;;4971274;28;20456;-81
2022/08/18 13:09:40;;;;;;;14.40;13.10;;;32.40;98.20;;;;;;4972789;28;20454;-81
2022/08/18 13:12:20;;;;;;;14.77;13.43;;;32.40;97.90;;;;;;4966380;28;20627;-81
2022/08/18 13:14:49;;;;;;;14.00;12.20;;;32.20;98.10;;;;;;4971503;28;20464;-81
2022/08/18 13:17:19;;;;;;;14.93;13.57;;;32.20;97.60;;;;;;4968733;28;20460;-80
2022/08/18 13:20:02;;;;;;;13.93;12.73;;;32.30;98.00;;;;;;4969176;28;20636;-80
2022/08/18 13:22:30;;;;;;;12.87;11.77;;;32.40;98.00;;;;;;4967611;28;20701;-78
2022/08/18 13:25:00;;;;;;;14.43;13.07;;;32.40;97.80;;;;;;4966072;28;20450;-81
2022/08/18 13:27:30;;;;;;;14.40;13.00;;;32.50;98.20;;;;;;4963892;28;20532;-81
2022/08/18 13:30:05;;;;;;;14.50;13.20;;;32.60;98.20;;;;;;4966282;28;20449;-84
2022/08/18 13:32:52;;;;;;;12.17;11.17;;;32.40;97.50;;;;;;4983591;28;20436;-82
2022/08/18 13:35:27;;;;;;;13.50;12.40;;;32.50;97.80;;;;;;4986665;28;20446;-80